KBIH/BIH METAR and TAF weather

Enter ICAO airport designator
Station Type Date Time Source
KBIH METAR 2019/04/21 21:56 UTC NOAA

KBIH 212156Z AUTO 35020G25KT 10SM FEW100 21/M04 A2996 RMK AO2 PK WND 36029/2134 SLP114 T02061039


Station Type Date Time Source
KBIH Decoded METAR 2019/04/21 21:56 UTC NOAA

BISHOP AIRPORT, CA, United States (KBIH) 37-22N 118-22W 1253M
Apr 21, 2019 - 05:56 PM EDT / 2019.04.21 2156 UTC
Wind: from the N (350 degrees) at 23 MPH (20 KT) gusting to 29 MPH (25 KT):0
Visibility: 10 mile(s):0
Sky conditions: mostly clear
Temperature: 69.1 F (20.6 C)
Dew Point: 25.0 F (-3.9 C)
Relative Humidity: 18%
Pressure (altimeter): 29.96 in. Hg (1014 hPa)
ob: KBIH 212156Z AUTO 35020G25KT 10SM FEW100 21/M04 A2996 RMK AO2 PK WND 36029/2134 SLP114 T02061039
cycle: 22

Station Type Date Time Source
KBIH TAF 2019/04/21 18:22 UTC NOAA

TAF KBIH 211720Z 2118/2218 36018G28KT P6SM FEW120
FM220700 34011KT P6SM FEW120
FM221500 36020G30KT P6SM FEW120

Example: see airport list